x

Point Arguello, Ca (ptgc1) Weather Station

6:00am - Sun 14th Feb 2016 All times are PST. -8 hours from GMT.

  • Wind
    21mph, 23mph gusts
  • Air Temp 58°f
  • Sea Pressure 1020.4mb
  • Point Arguello, Ca
  • Point Arguello, Ca

More Historic Weather Station data

Upgrade to MSW Pro to gain access to the past 30 days of data for over 8000 Wavebouys and Weather Stations around the globe.

Join Pro

Comparision Forecast

View Surf forecast
   
Sun 02/14 6:00am 21 23 mph 1020.4mb 58f
5:00am 24 26 mph 1019.9mb 58f
4:00am 26 30 mph 1020.5mb 58f
3:00am 23 26 mph 1020.7mb 58f
2:00am 21 24 mph 1020.9mb 60f
1:00am 20 23 mph 1021.2mb 57f
12:00am 32 34 mph 1021.1mb 58f
Sat 02/13 11:00pm 33 37 mph 1020.4mb 58f
10:00pm 31 36 mph 1020.6mb 60f
9:00pm 32 33 mph 1019.8mb 63f
8:00pm 26 28 mph 1020.3mb 57f
7:00pm 22 24 mph 1020.7mb 57f
6:00pm 17 21 mph 1020mb 57f
5:00pm 23 28 mph 1019.4mb 56f
4:00pm 24 26 mph 1019.6mb 56f
3:00pm 21 23 mph 1019.8mb 56f
2:00pm 21 24 mph 1020.3mb 56f
1:00pm 21 23 mph 1020.1mb 57f
12:00pm 23 28 mph 1020.2mb 57f
11:00am 23 25 mph 1020.2mb 58f
10:00am 24 26 mph 1020.4mb 58f
9:00am 23 24 mph 1020.5mb 59f
8:00am 14 15 mph 1020mb 61f
7:00am 14 15 mph 1019.8mb 60f
6:00am 17 18 mph 1019.4mb 59f
5:00am 17 20 mph 1018.8mb 61f
4:00am 14 16 mph 1018.5mb 60f
3:00am 17 18 mph 1018.8mb 59f
2:00am 15 16 mph 1018.9mb 59f
1:00am 22 24 mph 1019mb 57f
12:00am 24 26 mph 1018.7mb 56f
Fri 02/12 11:00pm 22 23 mph 1018.6mb 55f
10:00pm 25 28 mph 1018.8mb 55f
9:00pm 20 22 mph 1019mb 56f
8:00pm 21 22 mph 1018.8mb 57f
7:00pm 18 21 mph 1019mb 57f
6:00pm 17 20 mph 1018.8mb 57f
5:00pm 20 22 mph 1018.7mb 58f
4:00pm 20 21 mph 1018.6mb 58f
3:00pm 16 18 mph 1018.8mb 58f
2:00pm 15 16 mph 1018.8mb 57f
1:00pm 14 15 mph 1019.4mb 56f
12:00pm 15 16 mph 1020.2mb 55f
11:00am 17 18 mph 1020.7mb 52f
10:00am 15 16 mph 1020.7mb 53f
9:00am 14 15 mph 1020.6mb 52f
8:00am 17 20 mph 1020mb 50f
7:00am 18 20 mph 1019.5mb 52f
6:00am 24 25 mph 1019.2mb 51f
5:00am 25 28 mph 1019.5mb 51f
4:00am 29 31 mph 1019.3mb 50f
3:00am 28 29 mph 1019.8mb 51f
2:00am 24 26 mph 1019.8mb 50f
1:00am 25 28 mph 1020.2mb 51f
12:00am 28 29 mph 1020.6mb 51f
Thu 02/11 11:00pm 20 21 mph 1020.3mb 51f
10:00pm 23 25 mph 1020.3mb 52f
9:00pm 25 28 mph 1020.5mb 52f
8:00pm 24 26 mph 1020.2mb 52f
7:00pm 23 24 mph 1019.9mb 53f
6:00pm 21 22 mph 1019.6mb 53f
5:00pm 21 22 mph 1019.3mb 53f
4:00pm 22 23 mph 1019.3mb 54f
3:00pm 17 20 mph 1019.5mb 58f
2:00pm 14 16 mph 1019.2mb 58f
1:00pm 14 15 mph 1019.5mb 59f
12:00pm 13 14 mph 1020.3mb 58f
11:00am 9 10 mph 1020.5mb 59f
10:00am 2 3 mph 1020.4mb 63f
9:00am 3 5 mph 1020mb 61f
8:00am  -  1 mph 1019.3mb 70f
7:00am 3 5 mph 1018.9mb 68f
6:00am  -  1 mph 1018.9mb 62f
5:00am 10 13 mph 1018.8mb 58f
4:00am 9 10 mph 1019mb 56f
3:00am 8 9 mph 1019.1mb 56f
2:00am 1 2 mph 1019.4mb 58f
1:00am  -  mph 1019.2mb 60f
12:00am 2 3 mph 1019.2mb 57f
Wed 02/10 11:00pm 5
mph
1019.5mb 56f
10:00pm 10 13 mph 1019.4mb 56f
9:00pm 11 13 mph 1019.3mb 57f
8:00pm 11 13 mph 1019.4mb 57f
7:00pm 15
mph
1019.2mb 58f
6:00pm 14 15 mph 1019.4mb 58f
5:00pm 17
mph
1019mb 60f
4:00pm 22 23 mph 1019.2mb 62f